createdAt,value
2018-06-11T00:00:56.881Z,0
2018-06-11T00:01:56.627Z,0
2018-06-11T00:02:56.870Z,0
2018-06-11T00:03:56.872Z,0
2018-06-11T00:04:56.354Z,0
2018-06-11T00:05:56.086Z,0
2018-06-11T00:06:56.850Z,0
2018-06-11T00:07:56.601Z,0
2018-06-11T00:08:56.592Z,0
2018-06-11T00:09:56.847Z,0
2018-06-11T00:10:56.577Z,0
2018-06-11T00:11:56.576Z,0
2018-06-11T00:12:56.826Z,0
2018-06-11T00:13:56.310Z,0
2018-06-11T00:14:56.822Z,0
2018-06-11T00:15:56.303Z,0
2018-06-11T00:16:56.297Z,0
2018-06-11T00:17:56.812Z,0
2018-06-11T00:18:56.795Z,0
2018-06-11T00:19:56.548Z,0
2018-06-11T00:20:56.535Z,0
2018-06-11T00:21:56.530Z,0
2018-06-11T00:22:56.879Z,0
2018-06-11T00:23:56.786Z,0
2018-06-11T00:24:56.772Z,0
2018-06-11T00:25:56.781Z,0
2018-06-11T00:26:56.514Z,0
2018-06-11T00:27:56.506Z,0
2018-06-11T00:28:56.248Z,0
2018-06-11T00:29:56.754Z,0
2018-06-11T00:30:56.500Z,0
2018-06-11T00:31:56.488Z,0
2018-06-11T00:32:56.745Z,0
2018-06-11T00:33:56.498Z,0
2018-06-11T00:34:56.223Z,0
2018-06-11T00:35:56.218Z,0
2018-06-11T00:36:56.219Z,0
2018-06-11T00:37:56.462Z,0
2018-06-11T00:38:56.727Z,0
2018-06-11T00:39:56.460Z,0
2018-06-11T00:40:56.457Z,0
2018-06-11T00:41:56.444Z,0
2018-06-11T00:42:56.448Z,0
2018-06-11T00:43:56.180Z,0
2018-06-11T00:44:56.178Z,0
2018-06-11T00:45:56.432Z,0
2018-06-11T00:46:56.438Z,0
2018-06-11T00:47:56.423Z,0
2018-06-11T00:48:56.675Z,0
2018-06-11T00:49:56.415Z,0
2018-06-11T00:50:56.678Z,0
2018-06-11T00:51:56.663Z,0
2018-06-11T00:52:56.396Z,0
2018-06-11T00:53:56.404Z,0
2018-06-11T00:54:56.646Z,0
2018-06-11T00:55:56.658Z,0
2018-06-11T00:56:56.386Z,0
2018-06-11T00:57:56.383Z,0
2018-06-11T00:58:56.388Z,0
2018-06-11T00:59:56.149Z,0
2018-06-11T01:00:56.110Z,0
2018-06-11T01:01:56.369Z,0
2018-06-11T01:02:56.100Z,0
2018-06-11T01:03:56.352Z,0
2018-06-11T01:04:56.606Z,0
2018-06-11T01:05:56.600Z,0
2018-06-11T01:06:56.337Z,0
2018-06-11T01:07:56.332Z,0
2018-06-11T01:08:56.585Z,0
2018-06-11T01:09:56.331Z,0
2018-06-11T01:10:56.593Z,0
2018-06-11T01:11:56.063Z,0
2018-06-11T01:12:55.808Z,0
2018-06-11T01:13:56.308Z,0
2018-06-11T01:14:56.303Z,0
2018-06-11T01:15:56.560Z,0
2018-06-11T01:16:56.552Z,0
2018-06-11T01:17:56.545Z,0
2018-06-11T01:18:56.541Z,0
2018-06-11T01:19:56.543Z,0
2018-06-11T01:20:56.279Z,0
2018-06-11T01:21:56.014Z,0
2018-06-11T01:22:56.269Z,0
2018-06-11T01:23:56.016Z,0
2018-06-11T01:24:56.261Z,0
2018-06-11T01:25:56.516Z,0
2018-06-11T01:26:56.256Z,0
2018-06-11T01:27:56.507Z,0
2018-06-11T01:28:56.498Z,0
2018-06-11T01:29:56.235Z,0
2018-06-11T01:30:56.241Z,0
2018-06-11T01:31:56.485Z,0
2018-06-11T01:32:56.484Z,0
2018-06-11T01:33:56.484Z,0
2018-06-11T01:34:56.475Z,0
2018-06-11T01:35:56.216Z,0
2018-06-11T01:36:56.217Z,0
2018-06-11T01:37:55.953Z,0
2018-06-11T01:38:56.456Z,0
2018-06-11T01:39:56.453Z,0
2018-06-11T01:40:56.450Z,0
2018-06-11T01:41:55.926Z,0
2018-06-11T01:42:56.182Z,0
2018-06-11T01:43:55.913Z,0
2018-06-11T01:44:55.918Z,0
2018-06-11T01:45:56.430Z,0
2018-06-11T01:46:56.422Z,0
2018-06-11T01:47:56.418Z,0
2018-06-11T01:48:56.409Z,0
2018-06-11T01:49:56.148Z,0
2018-06-11T01:50:56.154Z,0
2018-06-11T01:51:56.395Z,0
2018-06-11T01:52:56.394Z,0
2018-06-11T01:53:56.390Z,0
2018-06-11T01:54:56.124Z,0
2018-06-11T01:55:56.378Z,0
2018-06-11T01:56:56.128Z,0
2018-06-11T01:57:55.857Z,0
2018-06-11T01:58:56.367Z,0
2018-06-11T01:59:55.895Z,0
2018-06-11T02:00:56.357Z,0
2018-06-11T02:01:56.351Z,0
2018-06-11T02:02:55.835Z,0
2018-06-11T02:03:56.343Z,0
2018-06-11T02:04:56.083Z,0
2018-06-11T02:05:56.335Z,0
2018-06-11T02:06:56.071Z,0
2018-06-11T02:07:56.375Z,0
2018-06-11T02:08:55.809Z,0
2018-06-11T02:09:56.316Z,0
2018-06-11T02:10:56.051Z,0
2018-06-11T02:11:56.047Z,0
2018-06-11T02:12:56.308Z,0
2018-06-11T02:13:55.780Z,0
2018-06-11T02:14:56.036Z,0
2018-06-11T02:15:56.034Z,0
2018-06-11T02:16:56.026Z,0
2018-06-11T02:17:56.025Z,0
2018-06-11T02:18:55.755Z,0
2018-06-11T02:19:56.014Z,0
2018-06-11T02:20:56.263Z,0
2018-06-11T02:21:56.086Z,0
2018-06-11T02:22:55.997Z,0
2018-06-11T02:23:56.249Z,0
2018-06-11T02:24:56.241Z,0
2018-06-11T02:25:56.234Z,0
2018-06-11T02:26:56.243Z,0
2018-06-11T02:27:55.973Z,0
2018-06-11T02:28:55.705Z,0
2018-06-11T02:29:56.222Z,0
2018-06-11T02:30:56.220Z,0
2018-06-11T02:31:55.965Z,0
2018-06-11T02:32:55.958Z,0
2018-06-11T02:33:55.941Z,0
2018-06-11T02:34:55.688Z,0
2018-06-11T02:35:55.950Z,0
2018-06-11T02:36:55.672Z,0
2018-06-11T02:37:55.921Z,0
2018-06-11T02:38:55.667Z,0
2018-06-11T02:39:56.219Z,0
2018-06-11T02:40:56.163Z,0
2018-06-11T02:41:56.156Z,0
2018-06-11T02:42:56.161Z,0
2018-06-11T02:43:56.146Z,0
2018-06-11T02:44:56.150Z,0
2018-06-11T02:45:55.897Z,0
2018-06-11T02:46:55.623Z,0
2018-06-11T02:47:55.886Z,0
2018-06-11T02:48:55.866Z,0
2018-06-11T02:49:55.866Z,0
2018-06-11T02:50:55.870Z,0
2018-06-11T02:51:56.108Z,0
2018-06-11T02:52:56.109Z,0
2018-06-11T02:53:55.855Z,5
2018-06-11T02:54:56.089Z,5
2018-06-11T02:55:55.834Z,5
2018-06-11T02:56:56.086Z,5
2018-06-11T02:57:55.832Z,5
2018-06-11T02:58:55.566Z,5
2018-06-11T02:59:56.074Z,5
2018-06-11T03:00:55.553Z,5
2018-06-11T03:01:56.069Z,5
2018-06-11T03:02:56.064Z,10
2018-06-11T03:03:55.549Z,10
2018-06-11T03:04:55.540Z,10
2018-06-11T03:05:55.787Z,10
2018-06-11T03:06:55.781Z,10
2018-06-11T03:07:55.522Z,10
2018-06-11T03:08:55.522Z,10
2018-06-11T03:09:56.037Z,10
2018-06-11T03:10:56.037Z,15
2018-06-11T03:11:56.033Z,15
2018-06-11T03:12:55.770Z,15
2018-06-11T03:13:56.014Z,15
2018-06-11T03:14:56.000Z,15
2018-06-11T03:15:55.742Z,15
2018-06-11T03:16:55.994Z,15
2018-06-11T03:17:55.472Z,15
2018-06-11T03:18:55.218Z,20
2018-06-11T03:19:55.719Z,20
2018-06-11T03:20:55.463Z,15
2018-06-11T03:21:55.994Z,20
2018-06-11T03:22:55.961Z,20
2018-06-11T03:23:56.007Z,20
2018-06-11T03:24:55.451Z,20
2018-06-11T03:25:55.695Z,20
2018-06-11T03:26:55.946Z,25
2018-06-11T03:27:55.429Z,25
2018-06-11T03:28:55.946Z,25
2018-06-11T03:29:55.939Z,30
2018-06-11T03:30:55.941Z,30
2018-06-11T03:31:55.675Z,30
2018-06-11T03:32:55.662Z,30
2018-06-11T03:33:55.650Z,30
2018-06-11T03:34:55.654Z,35
2018-06-11T03:35:55.790Z,35
2018-06-11T03:36:55.654Z,40
2018-06-11T03:37:55.125Z,40
2018-06-11T03:38:55.635Z,40
2018-06-11T03:39:55.633Z,40
2018-06-11T03:40:55.918Z,40
2018-06-11T03:41:55.618Z,40
2018-06-11T03:42:55.614Z,40
2018-06-11T03:43:55.616Z,40
2018-06-11T03:44:55.356Z,45
2018-06-11T03:45:55.385Z,45
2018-06-11T03:46:55.851Z,50
2018-06-11T03:47:55.846Z,55
2018-06-11T03:48:55.597Z,50
2018-06-11T03:49:55.593Z,55
2018-06-11T03:50:55.330Z,60
2018-06-11T03:51:55.834Z,60
2018-06-11T03:52:55.686Z,60
2018-06-11T03:53:55.569Z,65
2018-06-11T03:54:55.820Z,65
2018-06-11T03:55:55.821Z,65
2018-06-11T03:56:55.555Z,60
2018-06-11T03:57:55.296Z,60
2018-06-11T03:58:55.806Z,60
2018-06-11T03:59:55.790Z,65
2018-06-11T04:00:55.606Z,65
2018-06-11T04:01:55.542Z,65
2018-06-11T04:02:55.274Z,65
2018-06-11T04:03:55.782Z,65
2018-06-11T04:04:55.261Z,70
2018-06-11T04:05:55.522Z,70
2018-06-11T04:06:55.777Z,75
2018-06-11T04:07:55.515Z,75
2018-06-11T04:08:55.778Z,80
2018-06-11T04:09:55.497Z,85
2018-06-11T04:10:55.844Z,95
2018-06-11T04:11:55.499Z,100
2018-06-11T04:12:55.236Z,110
2018-06-11T04:13:55.747Z,115
2018-06-11T04:14:55.482Z,125
2018-06-11T04:15:55.741Z,130
2018-06-11T04:16:55.743Z,135
2018-06-11T04:17:55.732Z,135
2018-06-11T04:18:55.723Z,145
2018-06-11T04:19:55.206Z,150
2018-06-11T04:20:55.466Z,150
2018-06-11T04:21:55.719Z,140
2018-06-11T04:22:55.455Z,135
2018-06-11T04:23:55.714Z,140
2018-06-11T04:24:55.450Z,145
2018-06-11T04:25:55.192Z,145
2018-06-11T04:26:55.184Z,140
2018-06-11T04:27:55.701Z,140
2018-06-11T04:28:55.690Z,140
2018-06-11T04:29:55.431Z,140
2018-06-11T04:30:55.431Z,140
2018-06-11T04:31:55.684Z,155
2018-06-11T04:32:55.687Z,175
2018-06-11T04:33:55.423Z,165
2018-06-11T04:34:55.415Z,170
2018-06-11T04:35:55.676Z,170
2018-06-11T04:36:55.414Z,170
2018-06-11T04:37:55.407Z,165
2018-06-11T04:38:55.408Z,165
2018-06-11T04:39:55.659Z,170
2018-06-11T04:40:55.402Z,165
2018-06-11T04:41:55.407Z,165
2018-06-11T04:42:55.711Z,135
2018-06-11T04:43:55.644Z,140
2018-06-11T04:44:55.386Z,130
2018-06-11T04:45:55.642Z,135
2018-06-11T04:46:55.122Z,140
2018-06-11T04:47:55.120Z,150
2018-06-11T04:48:55.640Z,155
2018-06-11T04:49:55.632Z,160
2018-06-11T04:50:55.375Z,175
2018-06-11T04:51:55.624Z,180
2018-06-11T04:52:55.639Z,180
2018-06-11T04:53:55.368Z,205
2018-06-11T04:54:55.619Z,185
2018-06-11T04:55:55.626Z,175
2018-06-11T04:56:55.097Z,175
2018-06-11T04:57:55.618Z,175
2018-06-11T04:58:55.356Z,175
2018-06-11T04:59:55.601Z,160
2018-06-11T05:00:55.087Z,175
2018-06-11T05:01:55.348Z,160
2018-06-11T05:02:54.822Z,150
2018-06-11T05:03:55.341Z,155
2018-06-11T05:04:55.596Z,165
2018-06-11T05:05:55.590Z,155
2018-06-11T05:06:55.334Z,140
2018-06-11T05:07:55.580Z,135
2018-06-11T05:08:55.577Z,125
2018-06-11T05:09:55.066Z,130
2018-06-11T05:10:55.575Z,160
2018-06-11T05:11:55.064Z,210
2018-06-11T05:12:55.315Z,210
2018-06-11T05:13:55.058Z,200
2018-06-11T05:14:55.568Z,220
2018-06-11T05:15:55.319Z,225
2018-06-11T05:16:55.308Z,210
2018-06-11T05:17:55.306Z,205
2018-06-11T05:18:55.558Z,245
2018-06-11T05:19:55.549Z,265
2018-06-11T05:20:55.555Z,270
2018-06-11T05:21:55.294Z,275
2018-06-11T05:22:54.790Z,255
2018-06-11T05:23:55.535Z,235
2018-06-11T05:24:55.030Z,230
2018-06-11T05:25:55.534Z,205
2018-06-11T05:26:55.549Z,185
2018-06-11T05:27:55.535Z,185
2018-06-11T05:28:55.423Z,200
2018-06-11T05:29:55.279Z,195
2018-06-11T05:30:55.531Z,175
2018-06-11T05:31:55.018Z,180
2018-06-11T05:32:55.532Z,165
2018-06-11T05:33:54.495Z,195
2018-06-11T05:34:55.061Z,210
2018-06-11T05:35:55.513Z,220
2018-06-11T05:36:55.514Z,225
2018-06-11T05:37:55.521Z,230
2018-06-11T05:38:54.998Z,230
2018-06-11T05:39:55.521Z,220
2018-06-11T05:40:55.257Z,260
2018-06-11T05:41:55.250Z,270
2018-06-11T05:42:54.997Z,270
2018-06-11T05:43:55.248Z,245
2018-06-11T05:44:55.507Z,235
2018-06-11T05:45:55.506Z,200
2018-06-11T05:46:55.241Z,205
2018-06-11T05:47:54.783Z,235
2018-06-11T05:48:55.241Z,285
2018-06-11T05:49:55.238Z,245
2018-06-11T05:50:55.497Z,270
2018-06-11T05:51:55.504Z,285
2018-06-11T05:52:55.234Z,255
2018-06-11T05:53:55.237Z,255
2018-06-11T05:54:55.496Z,245
2018-06-11T05:55:54.712Z,230
2018-06-11T05:56:55.222Z,285
2018-06-11T05:57:54.970Z,330
2018-06-11T05:58:55.220Z,360
2018-06-11T05:59:55.223Z,350
2018-06-11T06:00:55.475Z,300
2018-06-11T06:01:54.963Z,245
2018-06-11T06:02:54.965Z,220
2018-06-11T06:03:54.955Z,255
2018-06-11T06:04:55.469Z,325
2018-06-11T06:05:54.957Z,420
2018-06-11T06:06:55.476Z,425
2018-06-11T06:07:55.472Z,385
2018-06-11T06:08:55.369Z,375
2018-06-11T06:09:54.952Z,355
2018-06-11T06:10:54.945Z,325
2018-06-11T06:11:55.221Z,310
2018-06-11T06:12:55.457Z,325
2018-06-11T06:13:55.504Z,330
2018-06-11T06:14:55.207Z,335
2018-06-11T06:15:55.208Z,335
2018-06-11T06:16:55.462Z,360
2018-06-11T06:17:54.942Z,375
2018-06-11T06:18:55.195Z,425
2018-06-11T06:19:55.462Z,435
2018-06-11T06:20:55.197Z,405
2018-06-11T06:21:55.197Z,405
2018-06-11T06:22:55.458Z,400
2018-06-11T06:23:55.202Z,400
2018-06-11T06:24:55.196Z,395
2018-06-11T06:25:54.940Z,390
2018-06-11T06:26:55.368Z,395
2018-06-11T06:27:55.457Z,400
2018-06-11T06:28:55.461Z,405
2018-06-11T06:29:54.936Z,400
2018-06-11T06:30:55.185Z,395
2018-06-11T06:31:55.441Z,400
2018-06-11T06:32:55.192Z,400
2018-06-11T06:33:55.450Z,400
2018-06-11T06:34:55.327Z,405
2018-06-11T06:35:55.442Z,405
2018-06-11T06:36:55.447Z,420
2018-06-11T06:37:55.184Z,460
2018-06-11T06:38:55.193Z,555
2018-06-11T06:39:54.931Z,555
2018-06-11T06:40:55.182Z,500
2018-06-11T06:41:54.933Z,440
2018-06-11T06:42:55.439Z,400
2018-06-11T06:43:54.928Z,395
2018-06-11T06:44:55.438Z,415
2018-06-11T06:45:55.448Z,460
2018-06-11T06:46:55.194Z,490
2018-06-11T06:47:55.453Z,500
2018-06-11T06:48:55.185Z,455
2018-06-11T06:49:55.191Z,460
2018-06-11T06:50:55.191Z,395
2018-06-11T06:51:55.195Z,360
2018-06-11T06:52:55.464Z,340
2018-06-11T06:53:54.936Z,320
2018-06-11T06:54:55.449Z,345
2018-06-11T06:55:55.452Z,445
2018-06-11T06:56:55.455Z,550
2018-06-11T06:57:55.459Z,540
2018-06-11T06:58:55.449Z,475
2018-06-11T06:59:55.499Z,475
2018-06-11T07:00:55.460Z,530
2018-06-11T07:01:55.460Z,590
2018-06-11T07:02:55.204Z,675
2018-06-11T07:03:55.196Z,695
2018-06-11T07:04:54.950Z,690
2018-06-11T07:05:55.204Z,685
2018-06-11T07:06:55.461Z,695
2018-06-11T07:07:55.197Z,605
2018-06-11T07:08:55.467Z,630
2018-06-11T07:09:55.202Z,700
2018-06-11T07:10:55.473Z,705
2018-06-11T07:11:55.474Z,805
2018-06-11T07:12:55.470Z,795
2018-06-11T07:13:55.526Z,750
2018-06-11T07:14:54.973Z,660
2018-06-11T07:15:55.493Z,575
2018-06-11T07:16:55.225Z,505
2018-06-11T07:17:55.224Z,460
2018-06-11T07:18:55.499Z,450
2018-06-11T07:19:54.718Z,445
2018-06-11T07:20:55.236Z,405
2018-06-11T07:21:55.506Z,355
2018-06-11T07:22:55.237Z,300
2018-06-11T07:23:55.239Z,280
2018-06-11T07:24:55.282Z,270
2018-06-11T07:25:55.507Z,285
2018-06-11T07:26:55.000Z,290
2018-06-11T07:27:55.509Z,295
2018-06-11T07:28:55.510Z,310
2018-06-11T07:29:55.525Z,315
2018-06-11T07:30:54.999Z,315
2018-06-11T07:31:55.256Z,310
2018-06-11T07:32:55.528Z,305
2018-06-11T07:33:55.014Z,300
2018-06-11T07:34:55.088Z,310
2018-06-11T07:35:55.269Z,315
2018-06-11T07:36:55.007Z,315
2018-06-11T07:37:55.267Z,335
2018-06-11T07:38:55.528Z,360
2018-06-11T07:39:55.272Z,385
2018-06-11T07:40:55.295Z,405
2018-06-11T07:41:55.525Z,410
2018-06-11T07:42:55.534Z,405
2018-06-11T07:43:55.267Z,385
2018-06-11T07:44:55.279Z,360
2018-06-11T07:45:55.533Z,360
2018-06-11T07:46:55.274Z,350
2018-06-11T07:47:55.011Z,325
2018-06-11T07:48:55.277Z,305
2018-06-11T07:49:55.019Z,285
2018-06-11T07:50:55.767Z,275
2018-06-11T07:51:55.093Z,260
2018-06-11T07:52:55.274Z,270
2018-06-11T07:53:55.543Z,280
2018-06-11T07:54:55.533Z,290
2018-06-11T07:55:55.323Z,315
2018-06-11T07:56:55.540Z,385
2018-06-11T07:57:55.537Z,485
2018-06-11T07:58:55.281Z,485
2018-06-11T07:59:55.349Z,465
2018-06-11T08:00:55.543Z,490
2018-06-11T08:01:55.021Z,510
2018-06-11T08:02:55.287Z,505
2018-06-11T08:03:55.272Z,480
2018-06-11T08:04:55.018Z,440
2018-06-11T08:05:55.025Z,410
2018-06-11T08:06:55.528Z,375
2018-06-11T08:07:55.019Z,340
2018-06-11T08:08:55.279Z,330
2018-06-11T08:09:55.277Z,300
2018-06-11T08:10:55.541Z,255
2018-06-11T08:11:55.286Z,240
2018-06-11T08:12:55.584Z,225
2018-06-11T08:13:55.279Z,225
2018-06-11T08:14:55.274Z,225
2018-06-11T08:15:55.274Z,240
2018-06-11T08:16:55.533Z,235
2018-06-11T08:17:55.278Z,255
2018-06-11T08:18:55.272Z,275
2018-06-11T08:19:55.536Z,285
2018-06-11T08:20:55.770Z,270
2018-06-11T08:21:55.277Z,265
2018-06-11T08:22:55.288Z,270
2018-06-11T08:23:55.017Z,265
2018-06-11T08:24:55.298Z,270
2018-06-11T08:25:55.284Z,285
2018-06-11T08:26:55.535Z,300
2018-06-11T08:27:55.539Z,300
2018-06-11T08:28:55.291Z,315
2018-06-11T08:29:55.281Z,360
2018-06-11T08:30:55.280Z,410
2018-06-11T08:31:55.527Z,425
2018-06-11T08:32:55.282Z,420
2018-06-11T08:33:55.688Z,430
2018-06-11T08:34:55.280Z,465
2018-06-11T08:35:55.023Z,465
2018-06-11T08:36:55.538Z,430
2018-06-11T08:37:55.285Z,400
2018-06-11T08:38:55.064Z,390
2018-06-11T08:39:55.534Z,405
2018-06-11T08:40:55.278Z,440
2018-06-11T08:41:55.534Z,465
2018-06-11T08:42:55.529Z,490
2018-06-11T08:43:55.552Z,520
2018-06-11T08:44:55.539Z,520
2018-06-11T08:45:55.532Z,500
2018-06-11T08:46:55.537Z,505
2018-06-11T08:47:55.273Z,465
2018-06-11T08:48:55.022Z,465
2018-06-11T08:49:55.534Z,480
2018-06-11T08:50:55.531Z,500
2018-06-11T08:51:55.277Z,500
2018-06-11T08:52:55.285Z,490
2018-06-11T08:53:55.533Z,470
2018-06-11T08:54:55.579Z,495
2018-06-11T08:55:55.286Z,520
2018-06-11T08:56:55.030Z,520
2018-06-11T08:57:55.536Z,475
2018-06-11T08:58:55.549Z,510
2018-06-11T08:59:55.859Z,470
2018-06-11T09:00:55.289Z,450
2018-06-11T09:01:55.539Z,505
2018-06-11T09:02:55.037Z,515
2018-06-11T09:03:55.545Z,470
2018-06-11T09:04:55.036Z,445
2018-06-11T09:05:55.548Z,455
2018-06-11T09:06:55.035Z,485
2018-06-11T09:07:55.296Z,515
2018-06-11T09:08:55.559Z,460
2018-06-11T09:09:55.549Z,420
2018-06-11T09:10:55.553Z,450
2018-06-11T09:11:55.040Z,560
2018-06-11T09:12:55.561Z,615
2018-06-11T09:13:55.560Z,655
2018-06-11T09:14:55.042Z,655
2018-06-11T09:15:55.561Z,650
2018-06-11T09:16:55.561Z,670
2018-06-11T09:17:55.382Z,700
2018-06-11T09:18:55.313Z,685
2018-06-11T09:19:55.559Z,670
2018-06-11T09:20:55.297Z,630
2018-06-11T09:21:55.308Z,590
2018-06-11T09:22:55.570Z,550
2018-06-11T09:23:55.567Z,570
2018-06-11T09:24:55.561Z,630
2018-06-11T09:25:55.312Z,610
2018-06-11T09:26:55.570Z,565
2018-06-11T09:27:55.566Z,540
2018-06-11T09:28:55.310Z,540
2018-06-11T09:29:55.573Z,540
2018-06-11T09:30:55.066Z,620
2018-06-11T09:31:55.583Z,665
2018-06-11T09:32:55.328Z,645
2018-06-11T09:33:55.327Z,610
2018-06-11T09:34:55.327Z,620
2018-06-11T09:35:55.074Z,625
2018-06-11T09:36:55.586Z,685
2018-06-11T09:37:55.585Z,690
2018-06-11T09:38:55.611Z,585
2018-06-11T09:39:55.094Z,475
2018-06-11T09:40:55.346Z,430
2018-06-11T09:41:55.354Z,485
2018-06-11T09:42:55.345Z,565
2018-06-11T09:43:55.764Z,505
2018-06-11T09:44:55.092Z,490
2018-06-11T09:45:55.103Z,530
2018-06-11T09:46:55.355Z,540
2018-06-11T09:47:55.358Z,515
2018-06-11T09:48:55.370Z,535
2018-06-11T09:49:55.361Z,510
2018-06-11T09:50:55.368Z,520
2018-06-11T09:51:55.111Z,550
2018-06-11T09:52:55.628Z,565
2018-06-11T09:53:55.627Z,535
2018-06-11T09:54:55.382Z,495
2018-06-11T09:55:55.286Z,495
2018-06-11T09:56:55.632Z,465
2018-06-11T09:57:55.635Z,425
2018-06-11T09:58:55.648Z,450
2018-06-11T09:59:55.645Z,490
2018-06-11T10:00:55.393Z,500
2018-06-11T10:01:55.641Z,530
2018-06-11T10:02:55.655Z,600
2018-06-11T10:03:55.654Z,620
2018-06-11T10:04:55.653Z,575
2018-06-11T10:05:55.653Z,555
2018-06-11T10:06:55.401Z,555
2018-06-11T10:07:55.146Z,560
2018-06-11T10:08:55.409Z,570
2018-06-11T10:09:55.671Z,585
2018-06-11T10:10:55.666Z,610
2018-06-11T10:11:55.416Z,625
2018-06-11T10:12:55.674Z,605
2018-06-11T10:13:55.677Z,580
2018-06-11T10:14:55.676Z,585
2018-06-11T10:15:55.685Z,590
2018-06-11T10:16:55.172Z,585
2018-06-11T10:17:55.682Z,565
2018-06-11T10:18:55.424Z,580
2018-06-11T10:19:55.435Z,595
2018-06-11T10:20:55.182Z,595
2018-06-11T10:21:55.435Z,610
2018-06-11T10:22:55.177Z,625
2018-06-11T10:23:55.191Z,620
2018-06-11T10:24:55.279Z,610
2018-06-11T10:25:55.710Z,580
2018-06-11T10:26:55.185Z,555
2018-06-11T10:27:55.718Z,550
2018-06-11T10:28:55.446Z,530
2018-06-11T10:29:55.452Z,515
2018-06-11T10:30:55.458Z,510
2018-06-11T10:31:55.207Z,505
2018-06-11T10:32:55.707Z,505
2018-06-11T10:33:55.727Z,465
2018-06-11T10:34:55.202Z,465
2018-06-11T10:35:55.728Z,475
2018-06-11T10:36:55.929Z,500
2018-06-11T10:37:55.468Z,540
2018-06-11T10:38:55.481Z,540
2018-06-11T10:39:55.738Z,525
2018-06-11T10:40:55.753Z,530
2018-06-11T10:41:55.747Z,545
2018-06-11T10:42:55.223Z,555
2018-06-11T10:43:55.487Z,555
2018-06-11T10:44:55.490Z,540
2018-06-11T10:45:55.743Z,525
2018-06-11T10:46:55.488Z,525
2018-06-11T10:47:55.235Z,535
2018-06-11T10:48:55.751Z,535
2018-06-11T10:49:55.493Z,530
2018-06-11T10:50:55.501Z,525
2018-06-11T10:51:55.503Z,505
2018-06-11T10:52:55.759Z,480
2018-06-11T10:53:55.502Z,470
2018-06-11T10:54:55.507Z,505
2018-06-11T10:55:55.763Z,535
2018-06-11T10:56:55.775Z,545
2018-06-11T10:57:55.258Z,550
2018-06-11T10:58:55.262Z,545
2018-06-11T10:59:55.541Z,535
2018-06-11T11:00:55.780Z,510
2018-06-11T11:01:55.779Z,495
2018-06-11T11:02:55.774Z,510
2018-06-11T11:03:55.782Z,495
2018-06-11T11:04:55.784Z,465
2018-06-11T11:05:55.788Z,430
2018-06-11T11:06:55.788Z,425
2018-06-11T11:07:55.536Z,460
2018-06-11T11:08:55.994Z,475
2018-06-11T11:09:55.540Z,465
2018-06-11T11:10:55.795Z,455
2018-06-11T11:11:55.801Z,455
2018-06-11T11:12:55.540Z,450
2018-06-11T11:13:55.540Z,445
2018-06-11T11:14:55.810Z,450
2018-06-11T11:15:55.299Z,430
2018-06-11T11:16:55.805Z,440
2018-06-11T11:17:55.812Z,450
2018-06-11T11:18:55.291Z,460
2018-06-11T11:19:55.800Z,455
2018-06-11T11:20:55.558Z,460
2018-06-11T11:21:55.658Z,445
2018-06-11T11:22:55.558Z,415
2018-06-11T11:23:55.609Z,425
2018-06-11T11:24:55.559Z,460
2018-06-11T11:25:55.831Z,445
2018-06-11T11:26:55.050Z,445
2018-06-11T11:27:55.837Z,500
2018-06-11T11:28:55.828Z,435
2018-06-11T11:29:55.572Z,390
2018-06-11T11:30:55.827Z,385
2018-06-11T11:31:55.575Z,380
2018-06-11T11:32:55.570Z,380
2018-06-11T11:33:55.771Z,370
2018-06-11T11:34:55.827Z,360
2018-06-11T11:35:55.583Z,365
2018-06-11T11:36:55.576Z,370
2018-06-11T11:37:55.580Z,385
2018-06-11T11:38:55.073Z,390
2018-06-11T11:39:55.845Z,405
2018-06-11T11:40:55.845Z,420
2018-06-11T11:41:55.595Z,420
2018-06-11T11:42:55.845Z,400
2018-06-11T11:43:55.590Z,415
2018-06-11T11:44:55.861Z,420
2018-06-11T11:45:55.853Z,435
2018-06-11T11:46:55.593Z,455
2018-06-11T11:47:55.334Z,460
2018-06-11T11:48:55.854Z,425
2018-06-11T11:49:55.337Z,385
2018-06-11T11:50:55.852Z,375
2018-06-11T11:51:55.862Z,385
2018-06-11T11:52:55.867Z,375
2018-06-11T11:53:55.872Z,370
2018-06-11T11:54:55.612Z,375
2018-06-11T11:55:55.864Z,390
2018-06-11T11:56:55.608Z,400
2018-06-11T11:57:55.619Z,380
2018-06-11T11:58:55.616Z,375
2018-06-11T11:59:55.375Z,375
2018-06-11T12:00:55.885Z,385
2018-06-11T12:01:56.015Z,390
2018-06-11T12:02:55.374Z,400
2018-06-11T12:03:55.900Z,410
2018-06-11T12:04:55.651Z,420
2018-06-11T12:05:55.883Z,415
2018-06-11T12:06:55.916Z,415
2018-06-11T12:07:55.880Z,410
2018-06-11T12:08:55.887Z,415
2018-06-11T12:09:55.895Z,430
2018-06-11T12:10:55.642Z,430
2018-06-11T12:11:55.386Z,445
2018-06-11T12:12:55.641Z,450
2018-06-11T12:13:56.126Z,455
2018-06-11T12:14:55.896Z,455
2018-06-11T12:15:55.907Z,460
2018-06-11T12:16:55.925Z,470
2018-06-11T12:17:55.900Z,470
2018-06-11T12:18:55.652Z,460
2018-06-11T12:19:55.902Z,455
2018-06-11T12:20:55.913Z,455
2018-06-11T12:21:55.650Z,465
2018-06-11T12:22:55.652Z,460
2018-06-11T12:23:55.670Z,455
2018-06-11T12:24:55.662Z,460
2018-06-11T12:25:55.915Z,450
2018-06-11T12:26:55.976Z,450
2018-06-11T12:27:55.928Z,450
2018-06-11T12:28:55.676Z,430
2018-06-11T12:29:55.927Z,420
2018-06-11T12:30:55.673Z,430
2018-06-11T12:31:55.686Z,455
2018-06-11T12:32:55.680Z,480
2018-06-11T12:33:55.938Z,500
2018-06-11T12:34:55.940Z,500
2018-06-11T12:35:55.932Z,470
2018-06-11T12:36:55.677Z,460
2018-06-11T12:37:55.935Z,470
2018-06-11T12:38:55.944Z,485
2018-06-11T12:39:56.066Z,505
2018-06-11T12:40:55.176Z,530
2018-06-11T12:41:55.714Z,535
2018-06-11T12:42:55.691Z,520
2018-06-11T12:43:55.698Z,500
2018-06-11T12:44:55.968Z,480
2018-06-11T12:45:55.442Z,465
2018-06-11T12:46:55.452Z,460
2018-06-11T12:47:56.165Z,450
2018-06-11T12:48:55.709Z,420
2018-06-11T12:49:55.716Z,400
2018-06-11T12:50:55.777Z,395
2018-06-11T12:51:55.491Z,395
2018-06-11T12:52:56.270Z,400
2018-06-11T12:53:55.744Z,390
2018-06-11T12:54:55.470Z,375
2018-06-11T12:55:56.031Z,370
2018-06-11T12:56:55.996Z,360
2018-06-11T12:57:55.992Z,340
2018-06-11T12:58:55.221Z,345
2018-06-11T12:59:55.740Z,335
2018-06-11T13:00:55.486Z,330
2018-06-11T13:01:55.764Z,330
2018-06-11T13:02:55.752Z,340
2018-06-11T13:03:55.531Z,340
2018-06-11T13:04:56.046Z,350
2018-06-11T13:05:55.238Z,360
2018-06-11T13:06:55.751Z,365
2018-06-11T13:07:56.026Z,375
2018-06-11T13:08:55.762Z,390
2018-06-11T13:09:55.764Z,425
2018-06-11T13:10:56.025Z,435
2018-06-11T13:11:55.773Z,450
2018-06-11T13:12:56.028Z,465
2018-06-11T13:13:55.780Z,475
2018-06-11T13:14:55.769Z,465
2018-06-11T13:15:55.780Z,460
2018-06-11T13:16:56.041Z,465
2018-06-11T13:17:55.778Z,460
2018-06-11T13:18:55.784Z,440
2018-06-11T13:19:56.040Z,445
2018-06-11T13:20:55.785Z,450
2018-06-11T13:21:56.058Z,460
2018-06-11T13:22:56.046Z,465
2018-06-11T13:23:56.053Z,465
2018-06-11T13:24:56.057Z,455
2018-06-11T13:25:56.096Z,445
2018-06-11T13:26:55.541Z,435
2018-06-11T13:27:55.807Z,435
2018-06-11T13:28:55.550Z,440
2018-06-11T13:29:56.056Z,445
2018-06-11T13:30:56.067Z,450
2018-06-11T13:31:55.563Z,455
2018-06-11T13:32:55.821Z,455
2018-06-11T13:33:55.557Z,455
2018-06-11T13:34:56.077Z,455
2018-06-11T13:35:55.813Z,450
2018-06-11T13:36:56.075Z,450
2018-06-11T13:37:55.815Z,455
2018-06-11T13:38:55.569Z,450
2018-06-11T13:39:56.083Z,445
2018-06-11T13:40:55.828Z,440
2018-06-11T13:41:55.834Z,440
2018-06-11T13:42:55.829Z,440
2018-06-11T13:43:56.088Z,435
2018-06-11T13:44:55.937Z,435
2018-06-11T13:45:56.102Z,435
2018-06-11T13:46:56.096Z,430
2018-06-11T13:47:56.098Z,425
2018-06-11T13:48:56.099Z,415
2018-06-11T13:49:55.844Z,410
2018-06-11T13:50:55.866Z,405
2018-06-11T13:51:55.600Z,400
2018-06-11T13:52:55.862Z,395
2018-06-11T13:53:55.863Z,390
2018-06-11T13:54:55.854Z,390
2018-06-11T13:55:55.861Z,390
2018-06-11T13:56:56.162Z,390
2018-06-11T13:57:56.121Z,385
2018-06-11T13:58:56.127Z,390
2018-06-11T13:59:56.124Z,385
2018-06-11T14:00:55.608Z,380